Time;durP1;ratioP1;P1;durP2;ratioP2;P2;SDS_P1;SDS_P2;PMS_P1;PMS_P2;Temp;Humidity;BMP_temperature;BMP_pressure;BME280_temperature;BME280_humidity;BME280_pressure;Samples;Min_cycle;Max_cycle;Signal;HPM_P1;HPM_P2
2023/05/13 00:01:14;;;;;;;13.52;8.05;;;13.10;99.90;;;;;;5041718;28;20041;-56
2023/05/13 00:03:40;;;;;;;11.48;8.25;;;13.10;99.90;;;;;;5022506;28;20045;-57
2023/05/13 00:06:06;;;;;;;13.60;8.45;;;13.00;99.90;;;;;;5044728;28;20506;-51
2023/05/13 00:08:32;;;;;;;9.32;7.55;;;13.00;99.90;;;;;;5026078;28;20037;-55
2023/05/13 00:10:57;;;;;;;13.45;8.48;;;13.00;99.90;;;;;;5044272;28;20128;-58
2023/05/13 00:13:23;;;;;;;11.27;8.38;;;13.00;99.90;;;;;;5044911;28;20275;-56
2023/05/13 00:15:49;;;;;;;10.95;7.90;;;13.00;99.90;;;;;;5044881;28;20080;-55
2023/05/13 00:18:14;;;;;;;11.38;8.27;;;13.00;99.90;;;;;;5044953;28;20129;-52
2023/05/13 00:20:40;;;;;;;13.25;8.48;;;13.00;99.90;;;;;;5043862;28;20287;-56
2023/05/13 00:23:06;;;;;;;12.00;8.88;;;13.00;99.90;;;;;;5044096;28;20316;-56
2023/05/13 00:25:32;;;;;;;11.32;8.93;;;12.90;99.90;;;;;;5044887;28;20403;-58
2023/05/13 00:27:58;;;;;;;11.20;8.88;;;12.90;99.90;;;;;;5043666;28;20041;-53
2023/05/13 00:30:24;;;;;;;15.35;9.10;;;12.90;99.90;;;;;;5044281;28;20130;-53
2023/05/13 00:32:50;;;;;;;14.30;9.25;;;12.80;99.90;;;;;;5044796;28;20049;-57
2023/05/13 00:35:16;;;;;;;12.70;8.90;;;12.80;99.90;;;;;;5044245;28;20072;-56
2023/05/13 00:37:42;;;;;;;13.52;9.13;;;12.80;99.90;;;;;;5043973;28;20052;-50
2023/05/13 00:40:23;;;;;;;11.43;9.32;;;12.70;99.90;;;;;;5044318;28;20087;-52
2023/05/13 00:42:50;;;;;;;11.32;9.57;;;12.70;99.90;;;;;;5043353;28;20045;-51
2023/05/13 00:45:16;;;;;;;12.98;9.80;;;12.70;99.90;;;;;;5044253;28;20446;-56
2023/05/13 00:47:42;;;;;;;12.23;9.48;;;12.60;99.90;;;;;;5044198;28;20087;-52
2023/05/13 00:50:09;;;;;;;10.93;9.65;;;12.60;99.90;;;;;;5043391;28;20396;-53
2023/05/13 00:52:39;;;;;;;12.60;9.40;;;12.60;99.90;;;;;;5043562;28;20712;-58
2023/05/13 00:55:06;;;;;;;15.65;9.73;;;12.60;99.90;;;;;;5044034;28;20044;-54
2023/05/13 00:57:33;;;;;;;13.93;9.27;;;12.60;99.90;;;;;;5025144;28;20104;-54
2023/05/13 00:59:59;;;;;;;11.50;9.27;;;12.60;99.90;;;;;;5043677;28;20037;-56
2023/05/13 01:02:58;;;;;;;11.20;8.65;;;12.60;99.90;;;;;;5043660;28;20099;-56
2023/05/13 01:05:49;;;;;;;13.27;9.40;;;12.60;99.90;;;;;;5043719;28;20060;-53
2023/05/13 01:08:36;;;;;;;12.90;9.30;;;12.50;99.90;;;;;;5124392;22;20529;-56
2023/05/13 01:11:23;;;;;;;15.75;9.68;;;12.40;99.90;;;;;;5046522;28;20102;-54
2023/05/13 01:13:56;;;;;;;14.15;9.23;;;12.50;99.90;;;;;;5045957;28;20606;-53
2023/05/13 01:16:48;;;;;;;10.95;8.90;;;12.40;99.90;;;;;;5046417;28;20084;-53
2023/05/13 01:19:45;;;;;;;12.02;8.70;;;12.40;99.90;;;;;;5046335;28;20040;-48
2023/05/13 01:22:11;;;;;;;11.13;9.20;;;12.40;99.90;;;;;;5029665;28;20053;-58
2023/05/13 01:24:37;;;;;;;15.57;9.13;;;12.40;99.90;;;;;;5045511;28;20044;-57
2023/05/13 01:27:03;;;;;;;11.43;9.32;;;12.30;99.90;;;;;;5045229;28;20514;-53
2023/05/13 01:29:29;;;;;;;12.45;9.50;;;12.30;99.90;;;;;;5045167;28;20052;-55
2023/05/13 01:31:56;;;;;;;14.40;9.55;;;12.30;99.90;;;;;;5045567;28;20056;-56
2023/05/13 01:34:23;;;;;;;14.13;9.57;;;12.30;99.90;;;;;;5028649;28;20049;-56
2023/05/13 01:36:49;;;;;;;11.73;9.98;;;12.20;99.90;;;;;;5045021;28;20106;-52
2023/05/13 01:39:16;;;;;;;12.18;9.63;;;12.20;99.90;;;;;;5028554;28;20045;-56
2023/05/13 01:41:43;;;;;;;12.35;9.20;;;12.20;99.90;;;;;;5046058;28;20045;-57
2023/05/13 01:44:09;;;;;;;12.20;9.80;;;12.10;99.90;;;;;;5045261;28;20514;-54
2023/05/13 01:46:41;;;;;;;13.55;10.52;;;12.10;99.90;;;;;;5045497;28;20048;-52
2023/05/13 01:49:08;;;;;;;13.90;9.60;;;12.10;99.90;;;;;;5046016;28;20344;-55
2023/05/13 01:51:35;;;;;;;13.40;9.85;;;12.10;99.90;;;;;;5044788;28;20095;-52
2023/05/13 01:54:01;;;;;;;15.15;10.05;;;12.00;99.90;;;;;;5045285;28;20547;-55
2023/05/13 01:56:26;;;;;;;13.13;10.48;;;12.00;99.90;;;;;;5045201;28;20049;-57
2023/05/13 01:58:52;;;;;;;13.80;10.18;;;12.00;99.90;;;;;;5027913;28;20045;-55
2023/05/13 02:01:17;;;;;;;13.68;10.25;;;12.00;99.90;;;;;;5044589;28;20118;-50
2023/05/13 02:03:44;;;;;;;11.70;9.57;;;12.00;99.90;;;;;;5044987;28;20037;-50
2023/05/13 02:06:09;;;;;;;15.00;10.57;;;12.00;99.90;;;;;;5045402;28;20060;-58
2023/05/13 02:08:35;;;;;;;14.98;11.02;;;12.00;99.90;;;;;;5044067;28;20064;-46
2023/05/13 02:11:01;;;;;;;16.52;10.88;;;12.00;99.90;;;;;;5044098;28;20071;-58
2023/05/13 02:13:26;;;;;;;16.15;10.13;;;12.00;99.90;;;;;;5044143;28;20126;-52
2023/05/13 02:15:52;;;;;;;11.50;10.10;;;12.00;99.90;;;;;;5045209;28;20795;-53
2023/05/13 02:18:18;;;;;;;14.95;11.18;;;12.00;99.90;;;;;;5045132;28;20537;-59
2023/05/13 02:20:45;;;;;;;11.60;9.85;;;12.00;99.90;;;;;;5045416;28;20053;-55
2023/05/13 02:23:10;;;;;;;13.60;11.20;;;12.00;99.90;;;;;;5027085;28;20044;-53
2023/05/13 02:25:36;;;;;;;12.75;10.48;;;12.00;99.90;;;;;;5009878;28;20745;-53
2023/05/13 02:28:02;;;;;;;13.77;10.93;;;12.00;99.90;;;;;;5043629;28;20084;-57
2023/05/13 02:30:28;;;;;;;17.75;12.25;;;11.90;99.90;;;;;;5045694;28;20044;-51
2023/05/13 02:32:54;;;;;;;13.38;12.00;;;11.90;99.90;;;;;;5044650;28;20044;-56
2023/05/13 02:35:21;;;;;;;14.75;12.18;;;11.80;99.90;;;;;;5044802;28;20561;-50
2023/05/13 02:37:47;;;;;;;15.00;11.98;;;11.80;99.90;;;;;;5044580;28;20049;-54
2023/05/13 02:40:13;;;;;;;17.17;12.70;;;11.80;99.90;;;;;;5043887;28;20450;-56
2023/05/13 02:42:38;;;;;;;20.42;14.13;;;11.90;99.90;;;;;;5045029;28;20083;-55
2023/05/13 02:45:05;;;;;;;17.98;13.57;;;11.80;99.90;;;;;;5044655;28;20072;-52
2023/05/13 02:47:30;;;;;;;17.17;13.60;;;11.80;99.90;;;;;;5026728;28;20040;-52
2023/05/13 02:49:56;;;;;;;15.82;14.20;;;11.90;99.90;;;;;;5044920;28;20052;-58
2023/05/13 02:52:22;;;;;;;18.02;14.02;;;11.70;99.90;;;;;;5043669;28;20036;-57
2023/05/13 02:54:48;;;;;;;17.42;14.05;;;11.70;99.90;;;;;;5044335;28;20071;-58
2023/05/13 02:57:13;;;;;;;16.40;14.50;;;11.70;99.90;;;;;;5043804;28;20460;-51
2023/05/13 02:59:39;;;;;;;16.70;14.45;;;11.70;99.90;;;;;;5044126;28;20044;-53
2023/05/13 03:02:04;;;;;;;17.58;14.95;;;11.60;99.90;;;;;;5044385;28;20055;-56
2023/05/13 03:04:30;;;;;;;19.10;15.32;;;11.70;99.90;;;;;;5025023;28;20071;-58
2023/05/13 03:06:56;;;;;;;18.55;14.93;;;11.70;99.90;;;;;;5042364;28;20074;-46
2023/05/13 03:09:21;;;;;;;17.13;14.95;;;11.60;99.90;;;;;;5042825;28;20458;-50
2023/05/13 03:11:47;;;;;;;17.42;15.50;;;11.50;99.90;;;;;;5042428;28;20053;-52
2023/05/13 03:14:13;;;;;;;17.65;15.75;;;11.60;99.90;;;;;;5043125;28;20492;-54
2023/05/13 03:16:40;;;;;;;20.77;16.17;;;11.60;99.90;;;;;;5044705;28;20058;-47
2023/05/13 03:19:05;;;;;;;18.23;16.20;;;11.50;99.90;;;;;;5044043;28;20103;-54
2023/05/13 03:21:31;;;;;;;17.88;16.08;;;11.50;99.90;;;;;;5042645;28;20144;-49
2023/05/13 03:23:57;;;;;;;17.33;15.00;;;11.50;99.90;;;;;;5043979;28;20079;-56
2023/05/13 03:26:22;;;;;;;17.20;15.32;;;11.50;99.90;;;;;;5043789;28;20052;-57
2023/05/13 03:28:48;;;;;;;17.73;14.27;;;11.50;99.90;;;;;;5044189;28;20450;-48
2023/05/13 03:31:14;;;;;;;15.85;14.15;;;11.50;99.90;;;;;;5042757;28;20105;-52
2023/05/13 03:33:39;;;;;;;16.10;14.48;;;11.50;99.90;;;;;;5043457;28;20033;-48
2023/05/13 03:36:05;;;;;;;20.48;15.48;;;11.50;99.90;;;;;;5043680;28;20045;-55
2023/05/13 03:38:31;;;;;;;17.48;15.43;;;11.50;99.90;;;;;;5042312;28;20155;-48
2023/05/13 03:40:57;;;;;;;16.92;15.13;;;11.50;99.90;;;;;;5043957;28;20120;-47
2023/05/13 03:43:23;;;;;;;16.98;15.07;;;11.50;99.90;;;;;;5043757;28;20049;-50
2023/05/13 03:45:50;;;;;;;19.08;15.23;;;11.50;99.90;;;;;;5043758;28;20067;-53
2023/05/13 03:48:16;;;;;;;16.65;14.95;;;11.50;99.90;;;;;;5043399;28;20511;-57
2023/05/13 03:50:42;;;;;;;17.30;15.32;;;11.40;99.90;;;;;;5025917;28;20045;-56
2023/05/13 03:53:09;;;;;;;20.35;15.88;;;11.40;99.90;;;;;;5042748;28;20099;-54
2023/05/13 03:55:34;;;;;;;20.30;16.25;;;11.40;99.90;;;;;;5042661;28;20091;-51
2023/05/13 03:58:11;;;;;;;20.90;16.10;;;11.40;99.90;;;;;;5043384;28;20049;-55
2023/05/13 04:00:37;;;;;;;18.45;15.57;;;11.40;99.90;;;;;;5043218;28;20058;-57
2023/05/13 04:03:02;;;;;;;19.58;15.57;;;11.40;99.90;;;;;;5043889;28;20496;-57
2023/05/13 04:05:28;;;;;;;20.20;16.90;;;11.40;99.90;;;;;;5043546;28;20511;-46
2023/05/13 04:07:53;;;;;;;18.88;16.75;;;11.40;99.90;;;;;;5042534;28;20454;-52
2023/05/13 04:10:19;;;;;;;21.88;17.02;;;11.40;99.90;;;;;;5042602;28;20132;-50
2023/05/13 04:12:45;;;;;;;21.08;17.00;;;11.40;99.90;;;;;;5043243;28;20144;-47
2023/05/13 04:15:10;;;;;;;19.52;15.73;;;11.40;99.90;;;;;;5043075;28;20486;-58
2023/05/13 04:17:36;;;;;;;19.27;16.25;;;11.40;99.90;;;;;;5041883;28;20055;-57
2023/05/13 04:20:02;;;;;;;18.27;16.23;;;11.40;99.90;;;;;;5042091;28;20041;-49
2023/05/13 04:22:27;;;;;;;19.17;15.70;;;11.40;99.90;;;;;;5042871;28;20748;-54
2023/05/13 04:24:55;;;;;;;19.27;16.30;;;11.40;99.90;;;;;;5043503;28;20041;-58
2023/05/13 04:27:24;;;;;;;18.95;16.25;;;11.40;99.90;;;;;;5043031;28;20045;-55
2023/05/13 04:29:50;;;;;;;18.90;16.50;;;11.30;99.90;;;;;;5043319;28;20041;-55
2023/05/13 04:32:20;;;;;;;19.17;16.60;;;11.40;99.90;;;;;;5042860;28;20056;-53
2023/05/13 04:34:47;;;;;;;17.73;15.85;;;11.40;99.90;;;;;;5042869;28;20443;-54
2023/05/13 04:37:12;;;;;;;21.10;17.00;;;11.50;99.90;;;;;;5042481;28;20033;-51
2023/05/13 04:39:38;;;;;;;19.50;16.13;;;11.50;99.90;;;;;;5043348;28;20492;-58
2023/05/13 04:42:04;;;;;;;17.95;15.35;;;11.50;99.90;;;;;;5042399;28;20041;-55
2023/05/13 04:44:31;;;;;;;18.20;15.43;;;11.50;99.90;;;;;;5042744;28;20051;-57
2023/05/13 04:46:56;;;;;;;18.40;15.10;;;11.60;99.90;;;;;;5042754;28;20091;-53
2023/05/13 04:49:22;;;;;;;20.30;15.85;;;11.90;99.90;;;;;;5042501;28;20033;-50
2023/05/13 04:51:48;;;;;;;16.35;14.63;;;12.10;99.90;;;;;;5027302;28;20048;-58
2023/05/13 04:54:13;;;;;;;21.23;15.23;;;12.40;99.90;;;;;;5046890;28;20072;-58
2023/05/13 04:56:39;;;;;;;18.95;15.35;;;12.50;99.90;;;;;;5046164;28;20488;-54
2023/05/13 04:59:04;;;;;;;15.98;13.73;;;12.80;99.90;;;;;;5046080;28;20056;-53
2023/05/13 05:01:30;;;;;;;18.23;14.05;;;12.90;99.90;;;;;;5046869;28;20048;-55
2023/05/13 05:03:57;;;;;;;16.08;13.65;;;13.10;99.90;;;;;;5046232;28;20629;-55
2023/05/13 05:06:22;;;;;;;14.73;13.20;;;13.30;99.90;;;;;;5045436;28;20045;-58
2023/05/13 05:08:48;;;;;;;17.70;13.73;;;13.40;99.90;;;;;;5046391;28;20060;-51
2023/05/13 05:11:14;;;;;;;19.83;13.93;;;13.60;99.90;;;;;;5046522;28;20083;-54
2023/05/13 05:13:39;;;;;;;15.85;13.57;;;13.90;99.90;;;;;;5045818;28;20045;-48
2023/05/13 05:16:05;;;;;;;18.90;13.10;;;14.20;99.90;;;;;;5046528;28;20041;-56
2023/05/13 05:18:31;;;;;;;18.33;13.07;;;14.40;99.90;;;;;;5045955;28;20049;-58
2023/05/13 05:20:57;;;;;;;17.65;12.98;;;14.60;99.90;;;;;;5045953;28;20041;-48
2023/05/13 05:23:22;;;;;;;18.02;13.35;;;14.90;99.90;;;;;;5044316;28;20089;-54
2023/05/13 05:25:48;;;;;;;17.05;13.45;;;15.10;99.90;;;;;;5046161;28;20213;-58
2023/05/13 05:28:14;;;;;;;15.27;13.02;;;15.20;99.90;;;;;;5045186;28;20146;-51
2023/05/13 05:30:39;;;;;;;16.55;13.10;;;15.50;99.90;;;;;;5044945;28;20052;-57
2023/05/13 05:33:06;;;;;;;18.42;13.73;;;15.60;99.90;;;;;;5045948;28;20033;-50
2023/05/13 05:35:37;;;;;;;16.10;12.68;;;15.80;99.90;;;;;;5046187;28;20040;-58
2023/05/13 05:38:06;;;;;;;18.42;12.68;;;15.90;99.90;;;;;;5044468;28;20037;-55
2023/05/13 05:40:33;;;;;;;15.93;12.88;;;16.10;99.90;;;;;;5045902;28;20041;-55
2023/05/13 05:42:58;;;;;;;16.25;12.90;;;16.20;99.90;;;;;;5045457;28;20073;-58
2023/05/13 05:45:24;;;;;;;14.35;11.80;;;16.50;99.90;;;;;;5043892;28;20088;-57
2023/05/13 05:47:50;;;;;;;13.73;12.20;;;16.60;99.90;;;;;;5045649;28;20039;-53
2023/05/13 05:50:15;;;;;;;15.68;11.55;;;16.70;99.90;;;;;;5045296;28;20056;-54
2023/05/13 05:52:41;;;;;;;17.92;11.63;;;16.90;99.90;;;;;;5044943;28;20535;-58
2023/05/13 05:55:07;;;;;;;18.10;11.90;;;16.90;99.90;;;;;;5045384;28;20052;-58
2023/05/13 05:57:33;;;;;;;13.35;11.38;;;17.10;99.90;;;;;;5045195;28;20048;-56
2023/05/13 05:59:58;;;;;;;14.25;11.15;;;17.20;99.90;;;;;;5045545;28;20040;-49
2023/05/13 06:02:24;;;;;;;18.10;12.32;;;17.40;99.90;;;;;;5045461;28;20657;-54
2023/05/13 06:04:49;;;;;;;15.77;11.35;;;17.40;99.90;;;;;;5045431;28;20045;-59
2023/05/13 06:07:15;;;;;;;12.55;11.15;;;17.40;99.90;;;;;;5045041;28;20514;-51
2023/05/13 06:09:41;;;;;;;13.77;10.88;;;17.50;99.90;;;;;;5045500;28;20121;-53
2023/05/13 06:12:07;;;;;;;14.45;11.23;;;17.60;99.90;;;;;;5045380;28;20473;-53
2023/05/13 06:14:32;;;;;;;19.55;11.77;;;17.80;99.90;;;;;;5045750;28;20072;-56
2023/05/13 06:16:58;;;;;;;13.35;11.38;;;17.80;99.90;;;;;;5045231;28;20529;-57
2023/05/13 06:19:24;;;;;;;12.93;11.40;;;17.90;99.90;;;;;;5043833;28;20040;-50
2023/05/13 06:21:49;;;;;;;14.63;11.18;;;18.10;99.90;;;;;;5044124;28;20155;-54
2023/05/13 06:24:15;;;;;;;13.93;10.93;;;18.20;99.90;;;;;;5044309;28;20713;-53
2023/05/13 06:26:41;;;;;;;12.70;10.95;;;18.20;99.90;;;;;;5042897;28;20451;-51
2023/05/13 06:29:06;;;;;;;13.60;10.00;;;18.40;99.90;;;;;;5044532;28;20037;-58
2023/05/13 06:31:32;;;;;;;11.75;9.82;;;18.50;99.90;;;;;;5045057;28;20053;-57
2023/05/13 06:33:57;;;;;;;12.50;10.20;;;18.70;99.90;;;;;;5044795;28;20053;-49
2023/05/13 06:36:23;;;;;;;15.43;10.73;;;19.00;99.90;;;;;;5043043;28;20136;-55
2023/05/13 06:38:49;;;;;;;16.63;10.55;;;19.20;99.90;;;;;;5044340;28;20033;-57
2023/05/13 06:41:15;;;;;;;15.20;10.20;;;19.30;99.90;;;;;;5045020;28;20048;-47
2023/05/13 06:43:40;;;;;;;11.82;9.18;;;19.30;99.90;;;;;;5044729;28;20048;-57
2023/05/13 06:46:06;;;;;;;13.30;10.27;;;19.20;99.90;;;;;;5025993;28;20052;-48
2023/05/13 06:48:32;;;;;;;12.88;9.95;;;19.00;99.90;;;;;;5045090;28;20045;-48
2023/05/13 06:50:57;;;;;;;12.40;10.20;;;18.90;99.90;;;;;;5043592;28;20140;-48
2023/05/13 06:53:23;;;;;;;11.57;9.45;;;18.90;99.90;;;;;;5044560;28;20041;-58
2023/05/13 06:55:49;;;;;;;14.13;9.52;;;19.00;99.90;;;;;;5044168;28;20527;-55
2023/05/13 06:58:14;;;;;;;12.00;9.00;;;19.20;99.90;;;;;;5044178;28;20047;-49
2023/05/13 07:00:40;;;;;;;12.18;9.63;;;19.20;99.90;;;;;;5044506;28;20056;-55
2023/05/13 07:03:06;;;;;;;12.65;8.52;;;19.20;99.90;;;;;;5043884;28;20106;-58
2023/05/13 07:05:33;;;;;;;16.65;10.52;;;19.30;99.90;;;;;;5026789;28;20041;-55
2023/05/13 07:07:58;;;;;;;11.90;8.45;;;19.20;99.90;;;;;;5042405;28;20475;-53
2023/05/13 07:10:24;;;;;;;11.48;9.60;;;19.20;99.90;;;;;;5044096;28;20032;-50
2023/05/13 07:12:50;;;;;;;12.07;9.43;;;19.20;99.90;;;;;;5034745;28;20137;-58
2023/05/13 07:15:15;;;;;;;15.35;8.45;;;19.40;99.90;;;;;;5034246;28;20038;-47
2023/05/13 07:17:41;;;;;;;13.90;9.23;;;19.60;99.90;;;;;;5031426;28;20052;-58
2023/05/13 07:20:08;;;;;;;12.85;7.95;;;19.70;99.90;;;;;;5007032;28;20042;-53
2023/05/13 07:22:34;;;;;;;12.48;8.65;;;19.70;99.70;;;;;;5020909;28;20266;-59
2023/05/13 07:25:00;;;;;;;14.55;8.35;;;19.70;99.90;;;;;;5021307;28;20125;-56
2023/05/13 07:27:26;;;;;;;10.95;7.80;;;19.70;99.70;;;;;;5021055;28;20136;-57
2023/05/13 07:29:52;;;;;;;12.48;8.05;;;19.80;99.80;;;;;;5021428;28;20052;-54
2023/05/13 07:32:17;;;;;;;11.82;8.45;;;19.90;99.50;;;;;;5020402;28;20084;-54
2023/05/13 07:34:43;;;;;;;10.95;8.38;;;20.00;99.30;;;;;;5021283;28;20080;-58
2023/05/13 07:37:09;;;;;;;10.65;8.10;;;19.90;99.50;;;;;;5020675;28;20083;-48
2023/05/13 07:39:35;;;;;;;10.68;8.05;;;20.00;99.30;;;;;;5021516;28;20140;-57
2023/05/13 07:42:01;;;;;;;11.40;8.20;;;20.20;99.10;;;;;;5002715;28;20480;-53
2023/05/13 07:44:26;;;;;;;10.88;7.43;;;20.20;98.80;;;;;;5021232;28;20226;-56
2023/05/13 07:46:52;;;;;;;9.48;7.38;;;20.30;98.90;;;;;;5021085;28;20299;-58
2023/05/13 07:49:19;;;;;;;12.30;8.18;;;20.40;98.50;;;;;;5020434;28;20121;-59
2023/05/13 07:51:44;;;;;;;12.00;6.80;;;20.50;98.30;;;;;;5020813;28;20875;-55
2023/05/13 07:54:10;;;;;;;9.15;7.05;;;20.60;98.30;;;;;;5002986;28;20278;-54
2023/05/13 07:56:37;;;;;;;8.18;6.93;;;20.60;98.20;;;;;;4986672;28;20524;-58
2023/05/13 07:59:02;;;;;;;10.35;6.20;;;20.70;98.30;;;;;;5020964;28;20052;-57
2023/05/13 08:01:28;;;;;;;9.40;6.20;;;20.60;97.70;;;;;;5021153;28;20471;-58
2023/05/13 08:03:54;;;;;;;13.77;6.90;;;20.60;97.70;;;;;;5002971;28;20407;-53
2023/05/13 08:06:20;;;;;;;10.93;5.65;;;20.70;97.90;;;;;;5019655;28;20341;-54
2023/05/13 08:08:45;;;;;;;7.68;6.22;;;20.80;98.00;;;;;;5020996;28;20061;-62
2023/05/13 08:11:12;;;;;;;8.25;6.35;;;20.90;98.00;;;;;;5020945;28;20041;-58
2023/05/13 08:13:38;;;;;;;10.07;6.32;;;21.00;97.80;;;;;;5020065;28;20037;-53
2023/05/13 08:16:05;;;;;;;10.15;6.68;;;21.00;97.90;;;;;;5020648;28;20057;-52
2023/05/13 08:18:31;;;;;;;10.43;6.70;;;20.90;97.70;;;;;;5021104;28;20477;-48
2023/05/13 08:20:57;;;;;;;8.88;7.18;;;20.80;97.50;;;;;;5019544;28;20121;-54
2023/05/13 08:23:24;;;;;;;10.15;7.07;;;20.80;98.00;;;;;;5020922;28;20048;-54
2023/05/13 08:25:50;;;;;;;12.38;7.22;;;20.80;98.20;;;;;;5022199;28;20045;-55
2023/05/13 08:28:16;;;;;;;10.75;7.18;;;20.90;98.10;;;;;;5024632;28;20087;-54
2023/05/13 08:30:43;;;;;;;12.57;6.85;;;21.00;98.10;;;;;;5023779;28;20073;-59
2023/05/13 08:33:11;;;;;;;8.73;6.40;;;21.10;98.20;;;;;;5024151;28;20587;-55
2023/05/13 08:35:37;;;;;;;11.18;6.80;;;21.10;98.00;;;;;;5025775;28;20695;-56
2023/05/13 08:38:04;;;;;;;9.85;6.53;;;21.20;98.10;;;;;;5023276;28;20055;-58
2023/05/13 08:40:33;;;;;;;11.32;7.05;;;21.20;97.70;;;;;;5023817;28;20041;-47
2023/05/13 08:43:03;;;;;;;11.13;6.18;;;21.30;98.00;;;;;;5022902;28;20041;-55
2023/05/13 08:45:30;;;;;;;11.68;6.30;;;21.50;98.50;;;;;;5022835;28;20041;-57
2023/05/13 08:48:02;;;;;;;11.15;7.47;;;21.80;98.50;;;;;;5023621;28;20125;-54
2023/05/13 08:50:28;;;;;;;9.75;7.50;;;22.00;98.90;;;;;;5023806;28;20052;-56
2023/05/13 08:52:56;;;;;;;14.18;7.88;;;22.10;98.80;;;;;;5023063;28;20451;-55
2023/05/13 08:55:22;;;;;;;9.38;6.88;;;22.10;98.70;;;;;;5024032;28;20515;-54
2023/05/13 08:57:49;;;;;;;10.13;6.30;;;22.20;99.00;;;;;;5024411;28;20070;-57
2023/05/13 09:00:15;;;;;;;10.30;7.35;;;22.30;99.10;;;;;;5023579;28;20045;-56
2023/05/13 09:02:41;;;;;;;8.13;6.40;;;22.40;99.10;;;;;;5023784;28;20080;-51
2023/05/13 09:05:08;;;;;;;12.55;7.57;;;22.50;99.00;;;;;;5023831;28;20088;-53
2023/05/13 09:07:35;;;;;;;12.95;6.70;;;22.50;98.80;;;;;;5022193;28;20053;-57
2023/05/13 09:10:02;;;;;;;10.07;6.57;;;22.70;98.80;;;;;;5023936;28;20061;-57
2023/05/13 09:12:48;;;;;;;9.27;6.10;;;22.80;98.90;;;;;;5023780;28;20050;-54
2023/05/13 09:15:16;;;;;;;9.27;6.05;;;23.00;97.60;;;;;;5024136;28;20088;-57
2023/05/13 09:17:44;;;;;;;11.10;6.05;;;23.20;98.20;;;;;;5023307;28;20041;-52
2023/05/13 09:20:14;;;;;;;13.95;7.15;;;23.30;98.00;;;;;;5022483;28;20042;-48
2023/05/13 09:22:47;;;;;;;8.00;5.95;;;23.40;97.60;;;;;;5022553;28;20508;-58
2023/05/13 09:25:14;;;;;;;8.27;6.35;;;23.50;96.30;;;;;;5023504;28;20388;-57
2023/05/13 09:27:43;;;;;;;9.90;5.72;;;23.50;97.00;;;;;;5022723;28;20038;-57
2023/05/13 09:30:10;;;;;;;13.70;6.28;;;23.60;96.30;;;;;;5023094;28;20100;-52
2023/05/13 09:32:36;;;;;;;9.50;5.90;;;23.70;96.50;;;;;;5023546;28;20148;-58
2023/05/13 09:35:18;;;;;;;7.63;6.05;;;23.80;96.60;;;;;;5022812;28;20048;-55
2023/05/13 09:37:48;;;;;;;8.70;5.57;;;23.90;95.60;;;;;;5022362;28;20041;-52
2023/05/13 09:40:17;;;;;;;10.80;5.85;;;24.00;96.60;;;;;;5023015;28;20122;-58
2023/05/13 09:42:45;;;;;;;9.73;5.78;;;24.20;96.50;;;;;;5005389;28;20077;-51
2023/05/13 09:45:13;;;;;;;11.77;6.00;;;24.30;96.30;;;;;;5022781;28;20037;-55
2023/05/13 09:47:40;;;;;;;8.80;5.50;;;24.40;96.30;;;;;;5022958;28;20041;-56
2023/05/13 09:50:07;;;;;;;7.68;5.50;;;24.50;95.70;;;;;;5023323;28;20042;-55
2023/05/13 09:52:35;;;;;;;8.57;5.15;;;24.50;95.60;;;;;;5022199;28;20124;-54
2023/05/13 09:55:05;;;;;;;7.40;5.10;;;24.60;95.70;;;;;;5022833;28;20627;-52
2023/05/13 09:57:31;;;;;;;8.80;5.47;;;24.60;95.50;;;;;;5022603;28;20041;-53
2023/05/13 10:00:04;;;;;;;13.80;5.32;;;24.80;95.50;;;;;;5022596;28;20512;-55
2023/05/13 10:02:30;;;;;;;9.10;5.22;;;24.90;94.00;;;;;;5022227;28;20041;-55
2023/05/13 10:04:57;;;;;;;6.63;4.55;;;25.00;95.00;;;;;;5022194;28;20132;-53
2023/05/13 10:07:24;;;;;;;11.68;4.85;;;25.20;95.10;;;;;;5004766;28;20235;-58
2023/05/13 10:09:57;;;;;;;8.68;5.40;;;25.30;94.60;;;;;;5022341;28;20057;-58
2023/05/13 10:12:26;;;;;;;8.95;4.75;;;25.40;93.90;;;;;;5022860;28;20056;-50
2023/05/13 10:14:53;;;;;;;7.53;4.47;;;25.40;93.70;;;;;;5022768;28;20045;-55
2023/05/13 10:17:24;;;;;;;12.50;5.07;;;25.50;93.90;;;;;;5022112;28;20037;-54
2023/05/13 10:19:53;;;;;;;10.77;4.22;;;25.60;92.80;;;;;;5022992;28;20048;-55
2023/05/13 10:22:30;;;;;;;7.68;3.63;;;25.60;93.20;;;;;;5021791;28;20084;-52
2023/05/13 10:24:57;;;;;;;6.60;4.10;;;25.70;93.20;;;;;;5022110;28;20703;-56
2023/05/13 10:27:28;;;;;;;9.23;4.32;;;25.90;93.30;;;;;;5022970;28;20045;-56
2023/05/13 10:29:56;;;;;;;6.32;4.00;;;26.00;92.50;;;;;;5022299;28;20052;-54
2023/05/13 10:32:28;;;;;;;8.73;4.30;;;26.00;92.60;;;;;;5022437;28;20041;-54
2023/05/13 10:35:01;;;;;;;6.53;3.50;;;26.20;92.30;;;;;;5022454;28;20049;-57
2023/05/13 10:38:08;;;;;;;14.43;3.58;;;26.20;91.30;;;;;;5002802;28;20120;-58
2023/05/13 10:40:48;;;;;;;5.82;3.45;;;26.20;90.70;;;;;;5021112;28;20189;-52
2023/05/13 10:43:20;;;;;;;8.05;3.33;;;26.30;88.50;;;;;;5021864;28;20056;-57
2023/05/13 10:46:07;;;;;;;5.90;3.03;;;26.20;87.90;;;;;;5021323;28;20092;-52
2023/05/13 10:48:58;;;;;;;6.78;3.47;;;26.00;88.70;;;;;;5021027;28;20057;-59
2023/05/13 10:51:24;;;;;;;14.15;5.70;;;26.00;89.00;;;;;;5021702;28;20156;-57
2023/05/13 10:53:56;;;;;;;7.65;3.33;;;25.90;88.80;;;;;;5021665;28;20050;-49
2023/05/13 10:56:27;;;;;;;6.20;3.30;;;25.80;85.10;;;;;;5021445;28;20044;-51
2023/05/13 10:59:01;;;;;;;13.57;4.45;;;25.70;88.30;;;;;;5021879;28;20094;-57
2023/05/13 11:01:41;;;;;;;6.50;3.10;;;25.70;87.60;;;;;;5021457;28;20049;-54
2023/05/13 11:04:12;;;;;;;4.57;3.00;;;25.50;83.50;;;;;;5021296;28;20496;-58
2023/05/13 11:06:40;;;;;;;7.10;3.40;;;25.40;85.00;;;;;;5021006;28;20041;-51
2023/05/13 11:09:27;;;;;;;6.22;3.22;;;25.30;88.60;;;;;;5020762;28;20045;-56
2023/05/13 11:11:58;;;;;;;6.97;3.20;;;25.50;88.80;;;;;;5021583;28;20049;-58
2023/05/13 11:14:29;;;;;;;5.93;3.17;;;25.50;87.60;;;;;;5021027;28;20079;-53
2023/05/13 11:17:01;;;;;;;8.70;3.05;;;25.70;89.30;;;;;;5003882;28;20038;-58
2023/05/13 11:19:29;;;;;;;7.03;3.10;;;25.60;86.00;;;;;;5021504;28;20068;-56
2023/05/13 11:21:58;;;;;;;8.15;3.42;;;25.60;87.90;;;;;;5002164;28;20081;-52
2023/05/13 11:24:25;;;;;;;7.53;3.30;;;25.70;89.50;;;;;;5021390;28;20116;-51
2023/05/13 11:26:55;;;;;;;9.48;3.38;;;25.80;89.60;;;;;;5021164;28;20069;-53
2023/05/13 11:29:33;;;;;;;9.02;3.20;;;25.80;89.30;;;;;;5020619;28;20383;-58
2023/05/13 11:32:00;;;;;;;9.60;3.13;;;26.00;90.00;;;;;;5021298;28;20236;-58
2023/05/13 11:34:26;;;;;;;5.70;3.00;;;26.00;89.20;;;;;;5021155;28;20285;-54
2023/05/13 11:36:56;;;;;;;6.53;2.90;;;25.90;88.20;;;;;;5020555;28;20041;-57
2023/05/13 11:39:25;;;;;;;6.03;3.33;;;25.80;87.20;;;;;;5020697;28;20052;-57
2023/05/13 11:41:53;;;;;;;5.15;3.10;;;25.70;86.90;;;;;;5029539;28;20049;-52
2023/05/13 11:44:24;;;;;;;5.90;3.20;;;25.70;88.00;;;;;;5040161;28;20235;-56
2023/05/13 11:47:07;;;;;;;9.00;3.10;;;25.60;84.10;;;;;;5040495;28;20278;-58
2023/05/13 11:49:42;;;;;;;7.35;2.85;;;25.40;82.90;;;;;;5025958;28;20267;-57
2023/05/13 11:52:09;;;;;;;9.00;3.50;;;25.50;86.90;;;;;;5039339;28;20569;-57
2023/05/13 11:54:42;;;;;;;8.05;3.38;;;25.50;86.50;;;;;;5040728;28;20041;-49
2023/05/13 11:57:35;;;;;;;9.88;3.13;;;25.60;85.40;;;;;;5042728;28;20061;-56
2023/05/13 12:00:05;;;;;;;10.90;3.40;;;25.70;82.90;;;;;;5042570;28;20061;-58
2023/05/13 12:02:37;;;;;;;6.47;3.00;;;25.60;84.10;;;;;;5046941;28;20167;-48
2023/05/13 12:05:07;;;;;;;4.85;2.80;;;25.50;85.70;;;;;;5046320;28;20123;-57
2023/05/13 12:07:34;;;;;;;12.40;3.30;;;25.30;83.20;;;;;;5046608;28;20430;-50
2023/05/13 12:10:01;;;;;;;6.75;3.05;;;25.30;83.90;;;;;;5044965;28;20407;-57
2023/05/13 12:12:28;;;;;;;4.55;2.92;;;25.30;84.70;;;;;;5044273;28;20496;-54
2023/05/13 12:15:03;;;;;;;8.00;2.95;;;25.30;82.80;;;;;;5043588;28;20045;-55
2023/05/13 12:17:30;;;;;;;5.70;3.03;;;25.20;82.00;;;;;;5044062;28;20516;-59
2023/05/13 12:20:15;;;;;;;8.20;3.40;;;25.20;83.30;;;;;;5043644;28;20044;-52
2023/05/13 12:22:44;;;;;;;4.68;3.00;;;25.20;80.90;;;;;;5043624;28;20041;-53
2023/05/13 12:25:36;;;;;;;5.68;2.53;;;25.20;83.90;;;;;;5043854;28;20763;-53
2023/05/13 12:28:16;;;;;;;8.63;3.20;;;25.20;84.70;;;;;;5043899;28;20449;-57
2023/05/13 12:31:00;;;;;;;6.38;2.78;;;25.20;82.40;;;;;;5043289;28;20072;-54
2023/05/13 12:33:28;;;;;;;;;;;25.30;82.90;;;;;;5044345;28;20045;-52
2023/05/13 12:36:13;;;;;;;8.95;3.05;;;25.30;86.10;;;;;;5042839;28;20256;-53
2023/05/13 12:38:51;;;;;;;7.68;2.95;;;25.20;84.50;;;;;;5038414;28;20042;-58
2023/05/13 12:41:17;;;;;;;6.45;3.00;;;25.20;84.00;;;;;;5023354;28;20045;-49